Авиационная погода в Киркенесе

Регион: 
Погода METAR: 
ENKR 222050Z 19020KT 9999 DRSN BKN014 M05/M08 Q1001 RMK WIND 731FT 21034KT
Время наблюдения
2022-01-22T20:50:00Z
Температура C
-5.0
Точка росы
-8.0
Направление ветра
190
Скорость ветра (узлы)
20
Метео видимость
6.21
Облачность
BKN
Нижняя граница облачности (футы)
1400
Явления погоды
DRSN
Условия полета
MVFR
BKN – значительная (рассеянная, разорванная) облачность;
DRSN – снежный позёмок;